createdAt,value
2023-04-07T00:02:09.148Z,99561.06
2023-04-07T00:07:13.364Z,99575.81
2023-04-07T00:12:17.412Z,99578.94
2023-04-07T00:17:21.545Z,99573.75
2023-04-07T00:22:25.371Z,99585.78
2023-04-07T00:27:29.516Z,99575.94
2023-04-07T00:32:34.654Z,99586.94
2023-04-07T00:37:39.372Z,99577.13
2023-04-07T00:42:43.407Z,99590.41
2023-04-07T00:47:47.627Z,99591.75
2023-04-07T00:52:52.356Z,99591.28
2023-04-07T00:57:56.207Z,99597.94
2023-04-07T01:03:12.904Z,99600.44
2023-04-07T01:08:20.747Z,99613.91
2023-04-07T01:13:39.837Z,99614.72
2023-04-07T01:19:37.536Z,99608.28
2023-04-07T01:24:52.496Z,99615.13
2023-04-07T01:29:57.865Z,99623.72
2023-04-07T01:35:04.082Z,99610.16
2023-04-07T01:40:10.271Z,99620.50
2023-04-07T01:45:16.099Z,99649.63
2023-04-07T01:50:21.955Z,99639.28
2023-04-07T01:55:26.929Z,99638.69
2023-04-07T02:00:44.258Z,99647.13
2023-04-07T02:05:57.428Z,99659.34
2023-04-07T02:11:08.608Z,99632.31
2023-04-07T02:16:14.998Z,99679.97
2023-04-07T02:21:20.369Z,99697.69
2023-04-07T02:26:24.265Z,99711.19
2023-04-07T02:31:28.652Z,99722.59
2023-04-07T02:36:32.895Z,99722.13
2023-04-07T02:41:36.846Z,99721.81
2023-04-07T02:46:42.151Z,99739.25
2023-04-07T02:51:47.635Z,99739.69
2023-04-07T02:56:52.365Z,99685.03
2023-04-07T03:01:56.529Z,99754.66
2023-04-07T03:07:01.362Z,99745.16
2023-04-07T03:12:09.696Z,99765.41
2023-04-07T03:17:14.306Z,99775.81
2023-04-07T03:22:19.282Z,99774.06
2023-04-07T03:27:27.560Z,99789.97
2023-04-07T03:32:31.668Z,99805.72
2023-04-07T03:37:35.524Z,99783.81
2023-04-07T03:42:41.836Z,99790.56
2023-04-07T03:47:48.153Z,99802.88
2023-04-07T03:52:53.478Z,99806.03
2023-04-07T03:58:03.399Z,99801.56
2023-04-07T04:03:12.139Z,99817.41
2023-04-07T04:08:28.339Z,99827.47
2023-04-07T04:13:33.084Z,99819.63
2023-04-07T04:18:41.305Z,99836.78
2023-04-07T04:23:47.839Z,99854.94
2023-04-07T04:28:52.010Z,99848.84
2023-04-07T04:33:58.251Z,99865.31
2023-04-07T04:39:02.834Z,99871.09
2023-04-07T04:44:07.499Z,99871.31
2023-04-07T04:49:12.741Z,99877.38
2023-04-07T04:54:17.694Z,99884.31
2023-04-07T04:59:23.633Z,99889.81
2023-04-07T05:04:37.872Z,99897.97
2023-04-07T05:10:09.491Z,99908.66
2023-04-07T05:15:19.790Z,99905.09
2023-04-07T05:20:26.808Z,99921.59
2023-04-07T05:25:33.097Z,99915.34
2023-04-07T05:30:40.517Z,99924.63
2023-04-07T05:35:48.109Z,99928.41
2023-04-07T05:40:52.566Z,99938.41
2023-04-07T05:46:08.498Z,99887.28
2023-04-07T05:51:20.659Z,99963.69
2023-04-07T05:56:26.351Z,99971.13
2023-04-07T06:01:32.433Z,99978.72
2023-04-07T06:06:36.602Z,99905.06
2023-04-07T06:11:40.796Z,99975.25
2023-04-07T06:16:44.946Z,99981.03
2023-04-07T06:21:49.560Z,99983.41
2023-04-07T06:26:53.881Z,99986.72
2023-04-07T06:31:57.824Z,99990.41
2023-04-07T06:37:02.285Z,99986.09
2023-04-07T06:42:06.284Z,100009.06
2023-04-07T06:47:16.309Z,100025.47
2023-04-07T06:52:20.250Z,100014.53
2023-04-07T06:57:25.073Z,99962.91
2023-04-07T07:02:29.146Z,100018.72
2023-04-07T07:07:33.253Z,100027.00
2023-04-07T07:12:37.397Z,100037.81
2023-04-07T07:17:42.354Z,100050.09
2023-04-07T07:22:46.486Z,100045.41
2023-04-07T07:27:54.238Z,100051.06
2023-04-07T07:32:58.148Z,100041.16
2023-04-07T07:38:02.562Z,100055.38
2023-04-07T07:43:07.548Z,100058.97
2023-04-07T07:48:12.083Z,100056.13
2023-04-07T07:53:16.456Z,100076.88
2023-04-07T07:58:20.434Z,100083.16
2023-04-07T08:03:25.480Z,100082.31
2023-04-07T08:08:29.407Z,100080.72
2023-04-07T08:13:33.495Z,100081.94
2023-04-07T08:18:38.283Z,100086.31
2023-04-07T08:23:42.677Z,100089.72
2023-04-07T08:28:52.557Z,100110.72
2023-04-07T08:33:58.868Z,100116.81
2023-04-07T08:39:05.242Z,100124.41
2023-04-07T08:44:12.410Z,100129.22
2023-04-07T08:49:19.151Z,100147.06
2023-04-07T08:54:25.556Z,100134.44
2023-04-07T08:59:30.342Z,100167.94
2023-04-07T09:04:34.720Z,100160.94
2023-04-07T09:09:38.580Z,100161.41
2023-04-07T09:14:42.598Z,100180.06
2023-04-07T09:19:46.672Z,100185.09
2023-04-07T09:24:51.829Z,100190.38
2023-04-07T09:30:16.558Z,100175.44
2023-04-07T09:35:24.596Z,100191.53
2023-04-07T09:40:28.494Z,100223.00
2023-04-07T09:45:36.972Z,100229.75
2023-04-07T09:50:42.814Z,100230.69
2023-04-07T09:55:48.001Z,100186.06
2023-04-07T10:00:53.098Z,100252.72
2023-04-07T10:05:57.189Z,100257.94
2023-04-07T10:11:05.257Z,100274.28
2023-04-07T10:16:09.888Z,100289.81
2023-04-07T10:21:16.114Z,100279.25
2023-04-07T10:26:25.283Z,100280.19
2023-04-07T10:31:29.688Z,100282.38
2023-04-07T10:36:34.914Z,100295.94
2023-04-07T10:41:40.687Z,100298.13
2023-04-07T10:46:51.528Z,100304.72
2023-04-07T10:52:13.503Z,100315.41
2023-04-07T10:57:18.668Z,100331.06
2023-04-07T11:02:25.762Z,100328.38
2023-04-07T11:08:00.065Z,100336.72
2023-04-07T11:13:09.253Z,100345.75
2023-04-07T11:18:21.615Z,100359.19
2023-04-07T11:23:26.277Z,100357.72
2023-04-07T11:28:31.620Z,100345.38
2023-04-07T11:33:37.875Z,100358.69
2023-04-07T11:38:45.451Z,100365.03
2023-04-07T11:44:04.480Z,100358.84
2023-04-07T11:49:13.916Z,100387.41
2023-04-07T11:54:17.754Z,100391.66
2023-04-07T11:59:24.503Z,100396.16
2023-04-07T12:04:28.422Z,100407.31
2023-04-07T12:09:36.709Z,100407.50
2023-04-07T12:14:40.606Z,100410.06
2023-04-07T12:19:44.667Z,100364.13
2023-04-07T12:24:48.592Z,100433.59
2023-04-07T12:29:52.757Z,100431.97
2023-04-07T12:34:56.619Z,100439.78
2023-04-07T12:40:01.214Z,100371.06
2023-04-07T12:45:07.138Z,100464.97
2023-04-07T12:50:12.494Z,100473.88
2023-04-07T12:55:16.364Z,100474.94
2023-04-07T13:00:20.410Z,100488.88
2023-04-07T13:05:24.856Z,100490.81
2023-04-07T13:10:29.252Z,100492.69
2023-04-07T13:15:34.177Z,100426.72
2023-04-07T13:20:38.358Z,100515.72
2023-04-07T13:25:43.387Z,100543.25
2023-04-07T13:30:48.371Z,100534.19
2023-04-07T13:35:53.483Z,100547.97
2023-04-07T13:40:57.316Z,100560.06
2023-04-07T13:46:01.561Z,100480.88
2023-04-07T13:51:05.506Z,100576.41
2023-04-07T13:56:10.615Z,100579.84
2023-04-07T14:01:14.845Z,100565.72
2023-04-07T14:06:18.874Z,100591.06
2023-04-07T14:11:23.618Z,100609.09
2023-04-07T14:16:28.015Z,100619.47
2023-04-07T14:21:32.152Z,100595.91
2023-04-07T14:26:36.273Z,100532.00
2023-04-07T14:31:41.087Z,100634.44
2023-04-07T14:36:55.648Z,100653.38
2023-04-07T14:41:59.565Z,100654.38
2023-04-07T14:47:03.583Z,100664.66
2023-04-07T14:52:07.644Z,100670.75
2023-04-07T14:57:12.602Z,100671.69
2023-04-07T15:02:16.642Z,100682.84
2023-04-07T15:07:20.741Z,100686.31
2023-04-07T15:12:24.948Z,100698.28
2023-04-07T15:17:40.601Z,100702.59
2023-04-07T15:22:47.772Z,100708.69
2023-04-07T15:27:51.842Z,100731.75
2023-04-07T15:33:04.948Z,100716.53
2023-04-07T15:38:08.882Z,100723.44
2023-04-07T15:43:12.931Z,100707.41
2023-04-07T15:48:17.176Z,100753.22
2023-04-07T15:53:21.613Z,100693.97
2023-04-07T15:58:25.783Z,100682.16
2023-04-07T16:03:30.003Z,100768.59
2023-04-07T16:08:34.215Z,100772.84
2023-04-07T16:13:38.111Z,100798.31
2023-04-07T16:18:43.346Z,100787.31
2023-04-07T16:23:47.535Z,100816.19
2023-04-07T16:28:52.584Z,100807.72
2023-04-07T16:33:56.505Z,100808.59
2023-04-07T16:39:00.617Z,100817.06
2023-04-07T16:44:04.541Z,100826.41
2023-04-07T16:49:08.380Z,100828.13
2023-04-07T16:54:12.436Z,100805.22
2023-04-07T16:59:16.274Z,100842.53
2023-04-07T17:04:20.393Z,100855.22
2023-04-07T17:09:24.475Z,100851.84
2023-04-07T17:14:29.317Z,100865.41
2023-04-07T17:19:33.555Z,100887.41
2023-04-07T17:24:37.409Z,100875.50
2023-04-07T17:29:41.437Z,100882.28
2023-04-07T17:34:45.497Z,100884.81
2023-04-07T17:39:49.370Z,100891.53
2023-04-07T17:44:54.350Z,100898.31
2023-04-07T17:49:58.250Z,100893.19
2023-04-07T17:55:04.063Z,100900.81
2023-04-07T18:00:08.713Z,100909.22
2023-04-07T18:05:20.642Z,100915.91
2023-04-07T18:10:24.876Z,100945.50
2023-04-07T18:15:28.937Z,100947.97
2023-04-07T18:20:33.709Z,100960.63
2023-04-07T18:25:37.785Z,100957.22
2023-04-07T18:30:43.647Z,100955.50
2023-04-07T18:35:47.608Z,100964.72
2023-04-07T18:40:51.856Z,100968.94
2023-04-07T18:45:55.834Z,100956.97
2023-04-07T18:51:00.572Z,100956.84
2023-04-07T18:56:05.885Z,100986.50
2023-04-07T19:01:09.921Z,100989.78
2023-04-07T19:06:17.658Z,100987.19
2023-04-07T19:11:21.450Z,100998.13
2023-04-07T19:16:25.745Z,101010.72
2023-04-07T19:21:29.795Z,100994.56
2023-04-07T19:26:34.569Z,101001.28
2023-04-07T19:31:39.105Z,101007.13
2023-04-07T19:36:43.104Z,101005.34
2023-04-07T19:41:46.877Z,101012.09
2023-04-07T19:46:52.948Z,101003.56
2023-04-07T19:51:57.792Z,100946.53
2023-04-07T19:57:02.659Z,101018.63
2023-04-07T20:02:07.479Z,101016.94
2023-04-07T20:07:11.626Z,101032.97
2023-04-07T20:12:15.702Z,101026.16
2023-04-07T20:17:20.977Z,101026.06
2023-04-07T20:22:25.059Z,101036.13
2023-04-07T20:27:28.959Z,101041.13
2023-04-07T20:32:32.995Z,101040.25
2023-04-07T20:37:36.787Z,101056.22
2023-04-07T20:42:40.831Z,101048.50
2023-04-07T20:47:44.817Z,101058.53
2023-04-07T20:52:48.923Z,101076.97
2023-04-07T20:57:55.194Z,101068.47
2023-04-07T21:02:59.130Z,101073.38
2023-04-07T21:08:03.354Z,101073.41
2023-04-07T21:13:07.126Z,101071.69
2023-04-07T21:18:12.893Z,101070.81
2023-04-07T21:23:17.140Z,101076.72
2023-04-07T21:28:21.136Z,101053.59
2023-04-07T21:33:25.669Z,101073.22
2023-04-07T21:38:29.535Z,101080.69
2023-04-07T21:43:35.325Z,101086.53
2023-04-07T21:48:39.109Z,101090.72
2023-04-07T21:53:43.111Z,101087.34
2023-04-07T21:58:48.054Z,101094.00
2023-04-07T22:03:53.182Z,101091.38
2023-04-07T22:09:01.806Z,101104.84
2023-04-07T22:14:06.614Z,101103.97
2023-04-07T22:19:10.479Z,101019.72
2023-04-07T22:24:14.761Z,101107.25
2023-04-07T22:29:18.632Z,101108.00
2023-04-07T22:34:22.531Z,101102.97
2023-04-07T22:39:27.527Z,101115.63
2023-04-07T22:44:32.599Z,101092.63
2023-04-07T22:49:36.416Z,101130.59
2023-04-07T22:54:40.404Z,101118.69
2023-04-07T22:59:44.300Z,101118.66
2023-04-07T23:04:48.120Z,101128.78
2023-04-07T23:09:52.131Z,101120.38
2023-04-07T23:14:56.153Z,101022.44
2023-04-07T23:20:00.040Z,101121.09
2023-04-07T23:25:05.941Z,101111.69
2023-04-07T23:30:10.155Z,101115.94
2023-04-07T23:35:14.090Z,101128.59
2023-04-07T23:40:18.011Z,101136.19
2023-04-07T23:45:22.067Z,101123.53
2023-04-07T23:50:28.411Z,101134.53
2023-04-07T23:55:32.237Z,101140.69
